createdAt,value
2016-06-21T00:00:32.930Z,0
2016-06-21T00:01:32.962Z,0
2016-06-21T00:02:32.991Z,0
2016-06-21T00:03:33.003Z,0
2016-06-21T00:04:33.048Z,0
2016-06-21T00:05:33.061Z,0
2016-06-21T00:06:32.463Z,0
2016-06-21T00:07:33.122Z,0
2016-06-21T00:08:33.814Z,0
2016-06-21T00:09:33.178Z,0
2016-06-21T00:10:33.221Z,0
2016-06-21T00:11:33.235Z,0
2016-06-21T00:12:33.963Z,0
2016-06-21T00:13:32.662Z,0
2016-06-21T00:14:33.326Z,0
2016-06-21T00:15:32.721Z,0
2016-06-21T00:16:33.369Z,0
2016-06-21T00:17:34.017Z,0
2016-06-21T00:18:33.426Z,0
2016-06-21T00:19:32.831Z,0
2016-06-21T00:20:33.485Z,0
2016-06-21T00:21:32.271Z,0
2016-06-21T00:22:32.903Z,0
2016-06-21T00:23:32.324Z,0
2016-06-21T00:24:32.987Z,0
2016-06-21T00:25:33.677Z,0
2016-06-21T00:26:33.637Z,0
2016-06-21T00:27:33.709Z,0
2016-06-21T00:28:34.297Z,0
2016-06-21T00:29:33.215Z,0
2016-06-21T00:30:33.133Z,0
2016-06-21T00:31:33.836Z,0
2016-06-21T00:32:33.858Z,0
2016-06-21T00:33:33.870Z,0
2016-06-21T00:34:33.276Z,0
2016-06-21T00:35:32.743Z,0
2016-06-21T00:36:33.981Z,0
2016-06-21T00:37:34.567Z,0
2016-06-21T00:38:33.538Z,0
2016-06-21T00:39:34.620Z,0
2016-06-21T00:40:33.537Z,0
2016-06-21T00:41:33.562Z,0
2016-06-21T00:42:34.705Z,0
2016-06-21T00:43:34.711Z,0
2016-06-21T00:44:33.508Z,0
2016-06-21T00:45:34.162Z,0
2016-06-21T00:46:34.195Z,0
2016-06-21T00:47:34.843Z,0
2016-06-21T00:48:34.861Z,0
2016-06-21T00:49:34.261Z,0
2016-06-21T00:50:34.328Z,0
2016-06-21T00:51:34.321Z,0
2016-06-21T00:52:33.160Z,0
2016-06-21T00:53:35.002Z,0
2016-06-21T00:54:35.025Z,0
2016-06-21T00:55:34.433Z,0
2016-06-21T00:56:33.825Z,0
2016-06-21T00:57:34.486Z,0
2016-06-21T00:58:35.130Z,0
2016-06-21T00:59:34.534Z,0
2016-06-21T01:00:33.955Z,0
2016-06-21T01:01:33.362Z,0
2016-06-21T01:02:33.379Z,0
2016-06-21T01:03:34.636Z,0
2016-06-21T01:04:34.672Z,0
2016-06-21T01:05:34.082Z,0
2016-06-21T01:06:34.143Z,0
2016-06-21T01:07:35.386Z,0
2016-06-21T01:08:34.165Z,0
2016-06-21T01:09:34.184Z,0
2016-06-21T01:10:34.834Z,0
2016-06-21T01:11:34.233Z,0
2016-06-21T01:12:34.268Z,0
2016-06-21T01:13:35.525Z,0
2016-06-21T01:17:43.321Z,0
2016-06-21T01:18:24.072Z,0
2016-06-21T01:19:23.612Z,0
2016-06-21T01:20:23.501Z,0
2016-06-21T01:21:24.765Z,0
2016-06-21T01:22:24.786Z,0
2016-06-21T01:23:24.811Z,0
2016-06-21T01:24:24.849Z,0
2016-06-21T01:25:24.519Z,0
2016-06-21T01:26:23.743Z,0
2016-06-21T01:27:23.744Z,0
2016-06-21T01:28:24.330Z,0
2016-06-21T01:29:24.332Z,0
2016-06-21T01:30:24.358Z,0
2016-06-21T01:31:25.029Z,0
2016-06-21T01:32:25.051Z,0
2016-06-21T01:33:23.847Z,0
2016-06-21T01:34:24.489Z,0
2016-06-21T01:35:24.500Z,0
2016-06-21T01:36:23.915Z,0
2016-06-21T01:37:25.166Z,0
2016-06-21T01:38:24.011Z,0
2016-06-21T01:39:24.606Z,0
2016-06-21T01:40:24.640Z,0
2016-06-21T01:41:24.676Z,0
2016-06-21T01:42:24.685Z,0
2016-06-21T01:43:24.723Z,0
2016-06-21T01:44:25.355Z,0
2016-06-21T01:45:24.141Z,0
2016-06-21T01:46:24.159Z,0
2016-06-21T01:47:24.198Z,0
2016-06-21T01:48:25.484Z,0
2016-06-21T01:49:24.242Z,0
2016-06-21T01:50:24.901Z,0
2016-06-21T01:51:24.921Z,0
2016-06-21T01:52:25.579Z,0
2016-06-21T01:53:25.590Z,0
2016-06-21T01:54:25.629Z,0
2016-06-21T01:55:25.037Z,0
2016-06-21T01:56:25.063Z,0
2016-06-21T01:57:25.702Z,0
2016-06-21T01:58:23.858Z,0
2016-06-21T01:59:25.148Z,0
2016-06-21T02:00:25.157Z,0
2016-06-21T02:01:25.180Z,0
2016-06-21T02:02:25.206Z,0
2016-06-21T02:03:25.228Z,0
2016-06-21T02:04:24.658Z,0
2016-06-21T02:05:25.922Z,0
2016-06-21T02:06:25.323Z,0
2016-06-21T02:07:24.758Z,0
2016-06-21T02:08:24.742Z,0
2016-06-21T02:09:25.421Z,0
2016-06-21T02:10:24.868Z,0
2016-06-21T02:11:24.823Z,0
2016-06-21T02:12:24.859Z,0
2016-06-21T02:13:25.483Z,0
2016-06-21T02:14:25.629Z,0
2016-06-21T02:15:26.295Z,0
2016-06-21T02:16:25.674Z,0
2016-06-21T02:17:25.702Z,0
2016-06-21T02:18:25.011Z,0
2016-06-21T02:19:25.033Z,0
2016-06-21T02:20:26.354Z,0
2016-06-21T02:21:26.431Z,0
2016-06-21T02:22:25.118Z,0
2016-06-21T02:23:25.155Z,0
2016-06-21T02:24:25.783Z,0
2016-06-21T02:25:25.811Z,0
2016-06-21T02:26:25.220Z,0
2016-06-21T02:27:24.611Z,0
2016-06-21T02:28:25.892Z,0
2016-06-21T02:29:25.935Z,0
2016-06-21T02:30:26.029Z,0
2016-06-21T02:31:25.431Z,0
2016-06-21T02:32:24.799Z,0
2016-06-21T02:33:25.468Z,0
2016-06-21T02:34:26.094Z,0
2016-06-21T02:35:26.199Z,0
2016-06-21T02:36:26.204Z,0
2016-06-21T02:37:24.963Z,0
2016-06-21T02:38:26.208Z,0
2016-06-21T02:39:26.164Z,4
2016-06-21T02:40:26.195Z,4
2016-06-21T02:41:26.245Z,4
2016-06-21T02:42:26.252Z,0
2016-06-21T02:43:25.660Z,4
2016-06-21T02:44:25.682Z,4
2016-06-21T02:45:26.412Z,4
2016-06-21T02:46:26.341Z,4
2016-06-21T02:47:25.759Z,8
2016-06-21T02:48:27.195Z,8
2016-06-21T02:49:26.469Z,8
2016-06-21T02:50:25.984Z,8
2016-06-21T02:51:25.256Z,8
2016-06-21T02:52:25.967Z,12
2016-06-21T02:53:26.619Z,12
2016-06-21T02:54:27.278Z,12
2016-06-21T02:55:25.958Z,12
2016-06-21T02:56:26.631Z,12
2016-06-21T02:57:26.630Z,12
2016-06-21T02:58:26.662Z,12
2016-06-21T02:59:27.304Z,16
2016-06-21T03:00:26.729Z,16
2016-06-21T03:01:26.118Z,20
2016-06-21T03:02:26.156Z,16
2016-06-21T03:03:26.801Z,20
2016-06-21T03:04:26.187Z,16
2016-06-21T03:05:26.921Z,20
2016-06-21T03:06:26.261Z,20
2016-06-21T03:07:27.537Z,20
2016-06-21T03:08:26.942Z,20
2016-06-21T03:09:26.956Z,24
2016-06-21T03:10:26.993Z,24
2016-06-21T03:11:26.383Z,24
2016-06-21T03:12:26.407Z,28
2016-06-21T03:13:27.051Z,36
2016-06-21T03:14:26.552Z,36
2016-06-21T03:15:25.854Z,40
2016-06-21T03:16:27.178Z,40
2016-06-21T03:17:27.198Z,52
2016-06-21T03:18:27.238Z,64
2016-06-21T03:19:28.005Z,64
2016-06-21T03:20:27.248Z,68
2016-06-21T03:21:26.639Z,80
2016-06-21T03:22:27.382Z,84
2016-06-21T03:23:26.078Z,88
2016-06-21T03:24:28.022Z,96
2016-06-21T03:25:27.414Z,96
2016-06-21T03:26:27.424Z,112
2016-06-21T03:27:26.847Z,116
2016-06-21T03:28:28.094Z,120
2016-06-21T03:29:28.102Z,128
2016-06-21T03:30:27.570Z,128
2016-06-21T03:31:27.518Z,124
2016-06-21T03:32:28.226Z,144
2016-06-21T03:33:26.942Z,140
2016-06-21T03:34:27.599Z,136
2016-06-21T03:35:26.995Z,108
2016-06-21T03:36:27.639Z,116
2016-06-21T03:37:27.671Z,88
2016-06-21T03:38:26.534Z,80
2016-06-21T03:39:28.347Z,80
2016-06-21T03:40:27.310Z,68
2016-06-21T03:41:27.760Z,64
2016-06-21T03:42:27.786Z,68
2016-06-21T03:43:27.182Z,64
2016-06-21T03:44:27.839Z,56
2016-06-21T03:45:27.958Z,48
2016-06-21T03:46:27.962Z,44
2016-06-21T03:47:27.368Z,52
2016-06-21T03:48:27.318Z,60
2016-06-21T03:49:28.139Z,80
2016-06-21T03:50:28.137Z,88
2016-06-21T03:51:27.523Z,104
2016-06-21T03:52:27.524Z,128
2016-06-21T03:53:28.064Z,140
2016-06-21T03:54:28.114Z,132
2016-06-21T03:55:28.731Z,128
2016-06-21T03:56:26.957Z,128
2016-06-21T03:57:28.178Z,104
2016-06-21T03:58:27.619Z,96
2016-06-21T03:59:28.223Z,100
2016-06-21T04:00:28.236Z,104
2016-06-21T04:01:28.894Z,116
2016-06-21T04:02:28.310Z,124
2016-06-21T04:03:27.682Z,116
2016-06-21T04:04:28.344Z,148
2016-06-21T04:05:28.976Z,140
2016-06-21T04:06:27.779Z,148
2016-06-21T04:07:28.419Z,152
2016-06-21T04:08:28.429Z,140
2016-06-21T04:09:28.465Z,124
2016-06-21T04:10:27.886Z,140
2016-06-21T04:11:28.510Z,120
2016-06-21T04:12:27.956Z,108
2016-06-21T04:13:29.185Z,100
2016-06-21T04:14:28.601Z,104
2016-06-21T04:15:28.599Z,108
2016-06-21T04:16:28.623Z,100
2016-06-21T04:17:28.652Z,108
2016-06-21T04:18:28.694Z,120
2016-06-21T04:19:29.314Z,120
2016-06-21T04:20:28.743Z,120
2016-06-21T04:21:28.757Z,120
2016-06-21T04:22:28.193Z,136
2016-06-21T04:23:28.205Z,152
2016-06-21T04:24:29.447Z,140
2016-06-21T04:25:27.619Z,144
2016-06-21T04:26:28.880Z,156
2016-06-21T04:27:28.288Z,156
2016-06-21T04:28:28.935Z,176
2016-06-21T04:29:28.367Z,176
2016-06-21T04:30:28.355Z,188
2016-06-21T04:31:28.422Z,192
2016-06-21T04:32:29.059Z,188
2016-06-21T04:33:29.056Z,168
2016-06-21T04:34:29.105Z,148
2016-06-21T04:35:28.518Z,160
2016-06-21T04:36:28.523Z,212
2016-06-21T04:37:27.919Z,280
2016-06-21T04:38:27.954Z,312
2016-06-21T04:39:29.196Z,352
2016-06-21T04:40:29.983Z,396
2016-06-21T04:41:29.348Z,456
2016-06-21T04:42:29.375Z,616
2016-06-21T04:43:28.708Z,676
2016-06-21T04:44:29.350Z,588
2016-06-21T04:45:29.448Z,528
2016-06-21T04:46:28.850Z,444
2016-06-21T04:47:28.791Z,356
2016-06-21T04:48:29.428Z,352
2016-06-21T04:49:29.441Z,404
2016-06-21T04:50:28.886Z,380
2016-06-21T04:51:29.612Z,340
2016-06-21T04:52:29.625Z,392
2016-06-21T04:53:29.617Z,472
2016-06-21T04:54:28.358Z,536
2016-06-21T04:55:29.678Z,476
2016-06-21T04:56:29.626Z,432
2016-06-21T04:57:29.651Z,416
2016-06-21T04:58:29.685Z,448
2016-06-21T04:59:29.735Z,492
2016-06-21T05:00:29.731Z,456
2016-06-21T05:01:30.371Z,492
2016-06-21T05:02:29.865Z,496
2016-06-21T05:03:28.630Z,436
2016-06-21T05:04:29.265Z,500
2016-06-21T05:05:30.523Z,684
2016-06-21T05:06:29.307Z,820
2016-06-21T05:07:29.367Z,808
2016-06-21T05:08:29.402Z,740
2016-06-21T05:09:29.399Z,716
2016-06-21T05:10:30.171Z,740
2016-06-21T05:11:29.561Z,740
2016-06-21T05:12:30.797Z,700
2016-06-21T05:13:30.763Z,648
2016-06-21T05:14:28.948Z,572
2016-06-21T05:15:30.208Z,656
2016-06-21T05:16:28.937Z,736
2016-06-21T05:17:30.160Z,536
2016-06-21T05:18:29.571Z,532
2016-06-21T05:19:30.931Z,424
2016-06-21T05:20:30.207Z,460
2016-06-21T05:21:30.876Z,604
2016-06-21T05:22:31.047Z,856
2016-06-21T05:23:30.291Z,796
2016-06-21T05:24:29.708Z,588
2016-06-21T05:25:30.989Z,572
2016-06-21T05:26:30.373Z,900
2016-06-21T05:27:29.775Z,836
2016-06-21T05:28:30.459Z,712
2016-06-21T05:29:29.885Z,848
2016-06-21T05:30:31.096Z,772
2016-06-21T05:31:31.133Z,868
2016-06-21T05:32:30.551Z,956
2016-06-21T05:33:30.227Z,992
2016-06-21T05:34:29.965Z,1112
2016-06-21T05:35:30.611Z,1108
2016-06-21T05:36:30.627Z,1144
2016-06-21T05:37:29.435Z,1156
2016-06-21T05:38:30.466Z,1156
2016-06-21T05:39:30.702Z,852
2016-06-21T05:40:29.551Z,1008
2016-06-21T05:41:30.773Z,1104
2016-06-21T05:42:31.419Z,1064
2016-06-21T05:43:30.198Z,980
2016-06-21T05:44:29.608Z,652
2016-06-21T05:45:30.843Z,572
2016-06-21T05:46:30.858Z,640
2016-06-21T05:47:31.550Z,916
2016-06-21T05:48:30.925Z,728
2016-06-21T05:49:30.955Z,636
2016-06-21T05:50:30.369Z,656
2016-06-21T05:51:30.389Z,752
2016-06-21T05:52:31.043Z,836
2016-06-21T05:53:30.434Z,840
2016-06-21T05:54:30.468Z,896
2016-06-21T05:55:31.836Z,1160
2016-06-21T05:56:29.891Z,1332
2016-06-21T05:57:30.617Z,1352
2016-06-21T05:58:31.187Z,1344
2016-06-21T05:59:29.950Z,1324
2016-06-21T06:00:30.632Z,1296
2016-06-21T06:01:31.273Z,1332
2016-06-21T06:02:31.275Z,1392
2016-06-21T06:03:31.411Z,1456
2016-06-21T06:04:30.095Z,1508
2016-06-21T06:05:30.840Z,1564
2016-06-21T06:06:30.746Z,1448
2016-06-21T06:07:30.783Z,1276
2016-06-21T06:08:31.577Z,1316
2016-06-21T06:09:31.499Z,1308
2016-06-21T06:10:30.893Z,1136
2016-06-21T06:11:31.533Z,932
2016-06-21T06:12:32.148Z,900
2016-06-21T06:13:30.948Z,828
2016-06-21T06:14:30.967Z,768
2016-06-21T06:15:32.216Z,464
2016-06-21T06:16:31.013Z,376
2016-06-21T06:17:31.183Z,404
2016-06-21T06:18:32.384Z,768
2016-06-21T06:19:32.390Z,1156
2016-06-21T06:20:31.806Z,1224
2016-06-21T06:21:31.947Z,1244
2016-06-21T06:22:31.942Z,1244
2016-06-21T06:23:31.955Z,1248
2016-06-21T06:24:31.955Z,1252
2016-06-21T06:25:31.980Z,1228
2016-06-21T06:26:31.979Z,1164
2016-06-21T06:27:31.982Z,1216
2016-06-21T06:28:31.383Z,1360
2016-06-21T06:29:32.144Z,1520
2016-06-21T06:30:32.774Z,1532
2016-06-21T06:31:32.161Z,1576
2016-06-21T06:32:30.896Z,1568
2016-06-21T06:33:32.139Z,1636
2016-06-21T06:34:31.540Z,1724
2016-06-21T06:35:31.567Z,1676
2016-06-21T06:36:30.953Z,1584
2016-06-21T06:37:32.202Z,1460
2016-06-21T06:38:32.203Z,1452
2016-06-21T06:39:32.844Z,1548
2016-06-21T06:40:31.630Z,1728
2016-06-21T06:41:32.275Z,1760
2016-06-21T06:42:32.920Z,1656
2016-06-21T06:43:32.931Z,1488
2016-06-21T06:44:31.752Z,1280
2016-06-21T06:45:32.979Z,932
2016-06-21T06:46:32.392Z,720
2016-06-21T06:47:31.800Z,704
2016-06-21T06:48:31.219Z,664
2016-06-21T06:49:31.849Z,812
2016-06-21T06:50:33.112Z,1228
2016-06-21T06:51:33.143Z,1564
2016-06-21T06:52:31.293Z,1520
2016-06-21T06:53:32.574Z,1400
2016-06-21T06:54:31.976Z,1268
2016-06-21T06:55:32.619Z,1204
2016-06-21T06:56:32.043Z,1264
2016-06-21T06:57:32.681Z,1304
2016-06-21T06:58:31.459Z,1284
2016-06-21T06:59:33.334Z,1328
2016-06-21T07:00:32.125Z,1320
2016-06-21T07:01:32.214Z,1268
2016-06-21T07:02:33.423Z,1080
2016-06-21T07:03:32.213Z,1000
2016-06-21T07:04:32.245Z,1148
2016-06-21T07:05:32.270Z,1260
2016-06-21T07:06:32.909Z,1396
2016-06-21T07:07:32.323Z,1416
2016-06-21T07:08:33.585Z,1336
2016-06-21T07:09:33.589Z,1248
2016-06-21T07:10:33.003Z,1216
2016-06-21T07:11:31.799Z,1312
2016-06-21T07:12:33.043Z,1312
2016-06-21T07:13:31.853Z,1264
2016-06-21T07:14:33.134Z,1140
2016-06-21T07:15:33.130Z,1224
2016-06-21T07:16:33.156Z,1492
2016-06-21T07:17:33.196Z,1504
2016-06-21T07:18:33.222Z,1484
2016-06-21T07:19:33.235Z,1468
2016-06-21T07:20:34.000Z,1472
2016-06-21T07:21:33.294Z,1532
2016-06-21T07:22:33.330Z,1476
2016-06-21T07:23:34.538Z,1376
2016-06-21T07:24:33.371Z,1300
2016-06-21T07:25:32.774Z,1276
2016-06-21T07:26:33.434Z,1380
2016-06-21T07:27:33.453Z,1532
2016-06-21T07:28:33.482Z,1664
2016-06-21T07:29:32.261Z,1704
2016-06-21T07:30:33.532Z,1564
2016-06-21T07:31:34.275Z,1492
2016-06-21T07:32:33.587Z,1460
2016-06-21T07:33:32.995Z,1636
2016-06-21T07:34:33.632Z,1680
2016-06-21T07:35:33.055Z,1468
2016-06-21T07:36:33.075Z,1276
2016-06-21T07:37:33.721Z,1348
2016-06-21T07:38:32.517Z,1632
2016-06-21T07:39:33.782Z,1824
2016-06-21T07:40:33.844Z,1736
2016-06-21T07:41:32.589Z,1872
2016-06-21T07:42:33.230Z,2020
2016-06-21T07:43:33.265Z,1940
2016-06-21T07:44:33.274Z,1960
2016-06-21T07:45:33.315Z,2036
2016-06-21T07:46:34.007Z,2276
2016-06-21T07:47:32.732Z,2096
2016-06-21T07:48:34.624Z,2092
2016-06-21T07:49:33.410Z,2148
2016-06-21T07:50:34.685Z,2248
2016-06-21T07:51:33.445Z,2364
2016-06-21T07:52:34.725Z,2400
2016-06-21T07:53:34.208Z,2532
2016-06-21T07:54:33.543Z,2576
2016-06-21T07:55:34.228Z,2504
2016-06-21T07:56:33.586Z,2504
2016-06-21T07:57:34.275Z,2508
2016-06-21T07:58:33.627Z,2536
2016-06-21T07:59:33.665Z,2524
2016-06-21T08:00:33.697Z,2340
2016-06-21T08:01:33.711Z,2008
2016-06-21T08:02:33.742Z,2144
2016-06-21T08:03:34.395Z,2208
2016-06-21T08:04:35.047Z,2140
2016-06-21T08:05:34.454Z,2084
2016-06-21T08:06:35.067Z,1764
2016-06-21T08:07:34.497Z,1580
2016-06-21T08:08:33.297Z,2032
2016-06-21T08:09:33.346Z,1784
2016-06-21T08:10:34.574Z,1624
2016-06-21T08:11:34.614Z,2108
2016-06-21T08:12:34.627Z,2096
2016-06-21T08:13:34.149Z,2024
2016-06-21T08:14:33.438Z,2028
2016-06-21T08:15:34.688Z,1848
2016-06-21T08:16:34.163Z,1948
2016-06-21T08:17:34.770Z,2032
2016-06-21T08:18:34.774Z,2052
2016-06-21T08:19:34.806Z,1996
2016-06-21T08:20:34.300Z,1916
2016-06-21T08:21:35.470Z,1852
2016-06-21T08:22:34.898Z,1840
2016-06-21T08:23:34.295Z,1908
2016-06-21T08:24:34.950Z,1924
2016-06-21T08:25:34.975Z,1840
2016-06-21T08:26:34.381Z,1876
2016-06-21T08:27:34.408Z,1984
2016-06-21T08:28:35.061Z,2080
2016-06-21T08:29:35.127Z,2204
2016-06-21T08:30:35.113Z,2284
2016-06-21T08:31:34.534Z,2292
2016-06-21T08:32:34.010Z,2276
2016-06-21T08:33:34.574Z,2224
2016-06-21T08:34:35.859Z,2192
2016-06-21T08:35:34.628Z,2224
2016-06-21T08:36:35.288Z,2084
2016-06-21T08:37:36.017Z,2236
2016-06-21T08:38:34.109Z,2360
2016-06-21T08:39:34.737Z,2420
2016-06-21T08:40:34.757Z,2484
2016-06-21T08:41:36.069Z,2568
2016-06-21T08:42:34.288Z,2580
2016-06-21T08:43:35.475Z,2584
2016-06-21T08:44:34.879Z,2768
2016-06-21T08:45:35.518Z,2876
2016-06-21T08:46:36.268Z,2952
2016-06-21T08:47:34.959Z,2960
2016-06-21T08:48:35.590Z,3032
2016-06-21T08:49:34.382Z,3084
2016-06-21T08:50:35.658Z,3088
2016-06-21T08:51:35.050Z,3064
2016-06-21T08:52:35.099Z,3052
2016-06-21T08:53:36.353Z,3040
2016-06-21T08:54:35.763Z,2952
2016-06-21T08:55:35.180Z,2864
2016-06-21T08:56:34.578Z,2776
2016-06-21T08:57:35.236Z,2688
2016-06-21T08:58:35.868Z,2484
2016-06-21T08:59:35.897Z,1968
2016-06-21T09:00:36.257Z,1244
2016-06-21T09:01:35.339Z,1108
2016-06-21T09:02:36.009Z,1552
2016-06-21T09:03:36.020Z,2328
2016-06-21T09:04:36.164Z,2136
2016-06-21T09:05:36.173Z,1576
2016-06-21T09:06:36.172Z,1308
2016-06-21T09:07:36.201Z,1096
2016-06-21T09:08:36.215Z,1328
2016-06-21T09:09:35.561Z,2364
2016-06-21T09:10:36.963Z,2952
2016-06-21T09:11:36.223Z,2788
2016-06-21T09:12:36.349Z,2520
2016-06-21T09:13:35.662Z,2904
2016-06-21T09:14:35.691Z,2592
2016-06-21T09:15:36.336Z,2612
2016-06-21T09:16:35.744Z,2120
2016-06-21T09:17:36.481Z,1716
2016-06-21T09:18:35.177Z,1228
2016-06-21T09:19:36.482Z,1076
2016-06-21T09:20:35.952Z,1160
2016-06-21T09:21:36.579Z,1260
2016-06-21T09:22:36.737Z,1444
2016-06-21T09:23:36.762Z,1372
2016-06-21T09:24:35.349Z,1204
2016-06-21T09:25:35.384Z,1316
2016-06-21T09:26:36.652Z,1356
2016-06-21T09:27:37.287Z,1424
2016-06-21T09:28:35.474Z,1924
2016-06-21T09:29:37.346Z,2496
2016-06-21T09:30:36.155Z,2976
2016-06-21T09:31:36.277Z,2904
2016-06-21T09:32:37.427Z,2688
2016-06-21T09:33:36.834Z,2220
2016-06-21T09:34:36.870Z,2208
2016-06-21T09:35:35.671Z,2056
2016-06-21T09:36:37.055Z,2280
2016-06-21T09:37:37.603Z,2228
2016-06-21T09:38:35.751Z,2324
2016-06-21T09:39:37.012Z,2056
2016-06-21T09:40:37.047Z,2380
2016-06-21T09:41:36.458Z,2864
2016-06-21T09:42:37.090Z,2764
2016-06-21T09:43:35.974Z,1952
2016-06-21T09:44:37.172Z,2228
2016-06-21T09:45:36.134Z,2744
2016-06-21T09:46:37.827Z,2596
2016-06-21T09:47:37.250Z,2620
2016-06-21T09:48:37.267Z,2820
2016-06-21T09:49:36.699Z,2956
2016-06-21T09:50:36.715Z,2968
2016-06-21T09:51:37.360Z,3164
2016-06-21T09:52:38.003Z,3100
2016-06-21T09:53:36.226Z,3024
2016-06-21T09:54:38.069Z,2348
2016-06-21T09:55:36.939Z,2276
2016-06-21T09:56:38.110Z,2204
2016-06-21T09:57:36.359Z,1820
2016-06-21T09:58:36.370Z,1696
2016-06-21T09:59:37.591Z,1736
2016-06-21T10:00:37.006Z,2508
2016-06-21T10:01:37.023Z,2996
2016-06-21T10:02:37.034Z,3196
2016-06-21T10:03:37.074Z,3236
2016-06-21T10:04:38.350Z,3268
2016-06-21T10:05:37.760Z,3228
2016-06-21T10:06:37.181Z,3120
2016-06-21T10:07:37.829Z,2780
2016-06-21T10:08:38.475Z,3088
2016-06-21T10:09:37.889Z,3036
2016-06-21T10:10:37.913Z,2908
2016-06-21T10:11:37.958Z,2828
2016-06-21T10:12:37.966Z,3104
2016-06-21T10:13:37.361Z,2908
2016-06-21T10:14:38.632Z,2472
2016-06-21T10:15:37.467Z,2188
2016-06-21T10:16:38.682Z,2268
2016-06-21T10:17:38.286Z,3988
2016-06-21T10:18:37.077Z,3300
2016-06-21T10:19:37.535Z,2572
2016-06-21T10:20:37.619Z,2460
2016-06-21T10:21:37.609Z,2276
2016-06-21T10:22:37.631Z,3008
2016-06-21T10:23:39.014Z,3012
2016-06-21T10:24:38.295Z,3284
2016-06-21T10:25:38.333Z,3504
2016-06-21T10:26:37.761Z,4388
2016-06-21T10:27:38.996Z,3208
2016-06-21T10:28:38.414Z,3668
2016-06-21T10:29:38.535Z,3448
2016-06-21T10:30:38.480Z,3488
2016-06-21T10:31:37.964Z,3016
2016-06-21T10:32:37.911Z,2064
2016-06-21T10:33:37.427Z,1884
2016-06-21T10:34:38.595Z,1912
2016-06-21T10:35:38.019Z,2688
2016-06-21T10:36:38.750Z,4412
2016-06-21T10:37:38.723Z,4196
2016-06-21T10:38:38.090Z,4128
2016-06-21T10:39:37.490Z,5104
2016-06-21T10:40:38.259Z,4024
2016-06-21T10:41:38.912Z,4604
2016-06-21T10:42:38.195Z,4152
2016-06-21T10:43:38.317Z,3620
2016-06-21T10:44:38.925Z,3964
2016-06-21T10:45:38.967Z,4064
2016-06-21T10:46:38.326Z,4344
2016-06-21T10:47:38.351Z,4712
2016-06-21T10:48:39.002Z,4540
2016-06-21T10:49:39.762Z,4388
2016-06-21T10:50:39.094Z,4156
2016-06-21T10:51:39.123Z,4320
2016-06-21T10:52:38.509Z,5076
2016-06-21T10:53:39.238Z,5408
2016-06-21T10:54:39.168Z,5220
2016-06-21T10:55:38.582Z,3868
2016-06-21T10:56:39.423Z,3696
2016-06-21T10:57:39.273Z,3488
2016-06-21T10:58:38.773Z,4256
2016-06-21T10:59:38.808Z,3228
2016-06-21T11:00:39.994Z,3212
2016-06-21T11:01:38.984Z,3360
2016-06-21T11:02:40.048Z,3412
2016-06-21T11:03:40.154Z,3320
2016-06-21T11:04:40.098Z,3360
2016-06-21T11:05:39.598Z,3428
2016-06-21T11:06:38.342Z,3288
2016-06-21T11:07:39.592Z,2584
2016-06-21T11:08:38.986Z,2220
2016-06-21T11:09:39.712Z,2320
2016-06-21T11:10:39.062Z,2496
2016-06-21T11:11:38.656Z,2624
2016-06-21T11:12:39.707Z,2704
2016-06-21T11:13:38.535Z,2808
2016-06-21T11:14:40.419Z,3016
2016-06-21T11:15:39.281Z,3268
2016-06-21T11:16:39.233Z,4424
2016-06-21T11:17:40.509Z,3720
2016-06-21T11:18:39.535Z,3104
2016-06-21T11:19:39.345Z,2772
2016-06-21T11:20:40.084Z,3028
2016-06-21T11:21:40.714Z,3528
2016-06-21T11:22:40.655Z,3916
2016-06-21T11:23:38.834Z,4092
2016-06-21T11:24:39.488Z,3624
2016-06-21T11:25:40.131Z,3288
2016-06-21T11:26:39.548Z,2968
2016-06-21T11:27:40.805Z,2888
2016-06-21T11:28:39.596Z,3096
2016-06-21T11:29:39.653Z,3520
2016-06-21T11:30:39.817Z,4016
2016-06-21T11:31:39.707Z,4120
2016-06-21T11:32:40.428Z,4148
2016-06-21T11:33:40.474Z,3756
2016-06-21T11:34:40.470Z,3712
2016-06-21T11:35:40.553Z,3748
2016-06-21T11:36:41.088Z,3728
2016-06-21T11:37:39.932Z,3864
2016-06-21T11:38:39.935Z,6144
2016-06-21T11:39:39.336Z,6208
2016-06-21T11:40:40.700Z,5456
2016-06-21T11:41:40.767Z,5408
2016-06-21T11:42:41.275Z,5408
2016-06-21T11:43:40.070Z,5280
2016-06-21T11:44:40.197Z,3384
2016-06-21T11:45:40.783Z,3288
2016-06-21T11:46:40.794Z,3976
2016-06-21T11:47:41.512Z,3892
2016-06-21T11:48:40.838Z,3512
2016-06-21T11:49:41.505Z,3164
2016-06-21T11:50:41.524Z,3324
2016-06-21T11:51:40.449Z,3516
2016-06-21T11:52:40.457Z,3240
2016-06-21T11:53:41.771Z,2328
2016-06-21T11:54:41.751Z,3196
2016-06-21T11:55:40.442Z,3232
2016-06-21T11:56:41.094Z,3244
2016-06-21T11:57:41.234Z,3384
2016-06-21T11:58:41.829Z,4044
2016-06-21T11:59:41.829Z,5400
2016-06-21T12:00:40.603Z,5820
2016-06-21T12:01:40.203Z,5168
2016-06-21T12:02:41.314Z,4080
2016-06-21T12:03:41.964Z,3700
2016-06-21T12:04:41.634Z,3612
2016-06-21T12:05:41.407Z,3520
2016-06-21T12:06:40.205Z,3552
2016-06-21T12:07:41.547Z,3596
2016-06-21T12:08:41.500Z,3668
2016-06-21T12:09:41.651Z,3716
2016-06-21T12:10:40.312Z,3860
2016-06-21T12:11:42.203Z,4264
2016-06-21T12:12:41.411Z,4724
2016-06-21T12:13:41.132Z,4668
2016-06-21T12:14:41.074Z,4132
2016-06-21T12:15:40.519Z,4276
2016-06-21T12:16:42.383Z,4660
2016-06-21T12:17:41.210Z,5068
2016-06-21T12:18:41.835Z,5360
2016-06-21T12:19:41.241Z,5556
2016-06-21T12:20:41.955Z,5572
2016-06-21T12:21:42.542Z,5628
2016-06-21T12:22:41.939Z,5628
2016-06-21T12:23:42.026Z,4716
2016-06-21T12:24:41.415Z,3596
2016-06-21T12:25:42.050Z,3976
2016-06-21T12:26:42.073Z,3772
2016-06-21T12:27:42.783Z,4056
2016-06-21T12:28:41.697Z,4500
2016-06-21T12:29:42.183Z,4672
2016-06-21T12:30:42.891Z,5004
2016-06-21T12:31:41.675Z,5408
2016-06-21T12:32:42.305Z,5040
2016-06-21T12:33:42.316Z,4468
2016-06-21T12:34:41.855Z,4724
2016-06-21T12:35:41.153Z,5560
2016-06-21T12:36:43.034Z,6288
2016-06-21T12:37:41.843Z,4432
2016-06-21T12:38:42.483Z,4284
2016-06-21T12:39:43.136Z,5300
2016-06-21T12:40:43.173Z,4856
2016-06-21T12:41:42.079Z,2772
2016-06-21T12:42:42.102Z,4180
2016-06-21T12:43:43.284Z,7052
2016-06-21T12:44:42.078Z,3452
2016-06-21T12:45:42.107Z,2604
2016-06-21T12:46:43.379Z,2480
2016-06-21T12:47:42.189Z,6108
2016-06-21T12:48:42.918Z,3612
2016-06-21T12:49:42.929Z,5180
2016-06-21T12:50:42.273Z,5392
2016-06-21T12:51:42.932Z,2544
2016-06-21T12:52:42.974Z,6272
2016-06-21T12:53:42.381Z,6784
2016-06-21T12:54:41.801Z,6968
2016-06-21T12:55:42.452Z,3752
2016-06-21T12:56:43.100Z,6312
2016-06-21T12:57:42.539Z,4444
2016-06-21T12:58:43.795Z,5532
2016-06-21T12:59:42.580Z,4100
2016-06-21T13:00:43.286Z,4884
2016-06-21T13:01:42.673Z,7696
2016-06-21T13:02:43.384Z,4724
2016-06-21T13:03:43.349Z,6288
2016-06-21T13:04:42.132Z,4744
2016-06-21T13:05:43.508Z,5772
2016-06-21T13:06:43.456Z,4864
2016-06-21T13:07:43.520Z,4160
2016-06-21T13:08:43.582Z,5404
2016-06-21T13:09:43.762Z,5584
2016-06-21T13:10:43.595Z,5848
2016-06-21T13:11:42.392Z,5912
2016-06-21T13:12:43.665Z,5024
2016-06-21T13:13:43.696Z,4956
2016-06-21T13:14:43.732Z,3912
2016-06-21T13:15:43.846Z,4556
2016-06-21T13:16:44.524Z,6016
2016-06-21T13:17:42.684Z,6392
2016-06-21T13:18:43.879Z,8976
2016-06-21T13:19:43.288Z,5960
2016-06-21T13:20:43.341Z,8892
2016-06-21T13:21:44.612Z,7196
2016-06-21T13:22:44.099Z,8328
2016-06-21T13:23:42.829Z,7524
2016-06-21T13:24:44.787Z,7268
2016-06-21T13:25:44.153Z,5716
2016-06-21T13:26:43.558Z,2644
2016-06-21T13:27:44.888Z,1524
2016-06-21T13:28:43.618Z,1160
2016-06-21T13:29:43.723Z,1084
2016-06-21T13:30:43.120Z,1032
2016-06-21T13:31:43.748Z,828
2016-06-21T13:32:45.001Z,804
2016-06-21T13:33:44.723Z,820
2016-06-21T13:34:44.553Z,868
2016-06-21T13:35:45.121Z,932
2016-06-21T13:36:44.524Z,896
2016-06-21T13:37:43.954Z,1004
2016-06-21T13:38:44.606Z,1208
2016-06-21T13:39:44.006Z,1304
2016-06-21T13:40:45.294Z,1152
2016-06-21T13:41:45.332Z,1076
2016-06-21T13:42:44.216Z,1184
2016-06-21T13:43:44.183Z,1248
2016-06-21T13:44:44.829Z,1232
2016-06-21T13:45:44.842Z,1124
2016-06-21T13:46:45.506Z,1056